Main page
METAR-TAF:

METAR-TAF

Airports :

Aurillac – Tronquières Airport

Aurillac, France

latitude: 44-53N, longitude: 002-25E, elevation: 639 m

Current weather observation

The report was made 39 minutes ago, at 21:30 UTC
Wind 2 kt from the East
Temperature 5°C
Humidity 81%
Pressure 1017 hPa
Visibility 10 km or more
no clouds below 1500 m and no cumulonimbus

METAR: LFLW 052130Z AUTO 10002KT CAVOK 05/02 Q1017

Time: 00:09 (22:09 UTC)

Forecast

The report was made 8 hours and 9 minutes ago, at 14:00 UTC
Forecast valid from 05 at 15 UTC to 05 at 24 UTC
Wind 10 kt from the West
Visibility 10 km or more
Scattered clouds at a height of 4500 ft
Becoming
from 05 at 18 UTC to 05 at 21 UTC
Wind 3 kt from variable directions

TAF: LFLW 051400Z 0515/0524 28010KT 9999 SCT045 BECMG 0518/0521 VRB03KT

Weather observations and forecasts of more than 4000 airports (METAR and TAF reports).

The available stations are represented by yellow and red dots on the map.

Hover mouse over dot to see the name of the station.

Then click to see weather observations and forecasts.

To change the map : click on the green buttons with a black cross to zoom in, on the green button with a dash to zoom out, or on the green arrows for adjacent maps.


METAR-TAF: